Time,TemperatureF,DewpointF,PressureIn,WindDirection,WindDirectionDegrees,WindSpeedMPH,WindSpeedGustMPH,Humidity,HourlyPrecipIn,Conditions,Clouds,dailyrainin,SoftwareType,DateUTC
2013-04-18 00:03:00,79.0,73.0,26.41,SE,133,19.0,23.0,81,0.00,,,0.00,,2013-04-18 04:03:00,
2013-04-18 00:13:00,79.0,73.0,26.41,SE,133,19.0,23.0,81,0.00,,,0.00,,2013-04-18 04:13:00,
2013-04-18 00:23:00,79.0,72.0,26.41,SE,126,18.0,20.0,80,0.00,,,0.00,,2013-04-18 04:23:00,
2013-04-18 00:33:00,79.0,72.0,26.41,SE,134,19.0,21.0,79,0.00,,,0.00,,2013-04-18 04:33:00,
2013-04-18 00:43:00,79.0,72.0,26.41,SE,130,14.0,22.0,80,0.00,,,0.00,,2013-04-18 04:43:00,
2013-04-18 00:53:00,79.0,72.0,26.41,SE,130,14.0,22.0,80,0.00,,,0.00,,2013-04-18 04:53:00,
2013-04-18 01:02:00,79.0,72.0,26.41,SE,134,15.0,19.0,80,0.00,,,0.00,,2013-04-18 05:02:00,
2013-04-18 01:12:00,79.0,72.0,26.41,SE,125,17.0,22.0,80,0.00,,,0.00,,2013-04-18 05:12:00,
2013-04-18 01:22:00,79.0,72.0,26.41,SE,125,17.0,22.0,80,0.00,,,0.00,,2013-04-18 05:22:00,
2013-04-18 01:33:00,79.0,72.0,26.41,SE,130,19.0,22.0,80,0.00,,,0.00,,2013-04-18 05:33:00,
2013-04-18 01:42:00,79.0,72.0,26.41,SE,133,19.0,23.0,80,0.00,,,0.00,,2013-04-18 05:42:00,
2013-04-18 01:52:00,79.0,72.0,26.41,SE,133,19.0,23.0,80,0.00,,,0.00,,2013-04-18 05:52:00,
2013-04-18 02:02:00,79.0,72.0,26.41,SSE,150,21.0,24.0,80,0.00,,,0.00,,2013-04-18 06:02:00,
2013-04-18 02:12:00,79.0,72.0,26.41,SSE,150,21.0,24.0,80,0.00,,,0.00,,2013-04-18 06:12:00,
2013-04-18 02:22:00,79.0,73.0,26.41,SSE,157,23.0,26.0,81,0.00,,,0.00,,2013-04-18 06:22:00,
2013-04-18 02:32:00,79.0,73.0,26.41,SSE,148,21.0,24.0,83,0.00,,,0.00,,2013-04-18 06:32:00,
2013-04-18 02:42:00,79.0,74.0,26.41,SSE,149,24.0,29.0,84,0.00,,,0.00,,2013-04-18 06:42:00,
2013-04-18 02:52:00,79.0,74.0,26.41,SSE,149,24.0,29.0,84,0.00,,,0.00,,2013-04-18 06:52:00,
2013-04-18 03:02:00,78.0,73.0,26.41,SE,142,23.0,28.0,84,0.00,,,0.00,,2013-04-18 07:02:00,
2013-04-18 03:12:00,78.0,73.0,26.41,SE,140,22.0,26.0,85,0.00,,,0.00,,2013-04-18 07:12:00,
2013-04-18 03:22:00,78.0,73.0,26.41,SE,140,22.0,26.0,85,0.00,,,0.00,,2013-04-18 07:22:00,
2013-04-18 03:32:00,77.0,72.0,26.41,SSE,155,25.0,30.0,86,0.00,,,0.00,,2013-04-18 07:32:00,
2013-04-18 03:42:00,77.0,72.0,26.41,SE,145,27.0,30.0,86,0.00,,,0.00,,2013-04-18 07:42:00,
2013-04-18 03:53:00,77.0,72.0,26.41,SE,145,27.0,30.0,86,0.00,,,0.00,,2013-04-18 07:53:00,
2013-04-18 04:02:00,77.0,72.0,26.41,SSE,151,27.0,31.0,85,0.00,,,0.00,,2013-04-18 08:02:00,
2013-04-18 04:12:00,76.0,72.0,26.41,SE,140,27.0,33.0,87,0.00,,,0.00,,2013-04-18 08:12:00,
2013-04-18 04:22:00,76.0,72.0,26.41,SE,140,27.0,33.0,87,0.00,,,0.00,,2013-04-18 08:22:00,
2013-04-18 04:32:00,76.0,72.0,26.41,SE,135,28.0,32.0,86,0.00,,,0.00,,2013-04-18 08:32:00,
2013-04-18 04:42:00,75.0,72.0,26.41,SE,125,23.0,29.0,89,0.00,,,0.00,,2013-04-18 08:42:00,
2013-04-18 04:52:00,75.0,72.0,26.41,SE,125,23.0,29.0,89,0.00,,,0.00,,2013-04-18 08:52:00,
2013-04-18 05:02:00,74.0,71.0,26.41,ESE,119,15.0,26.0,89,0.00,,,0.00,,2013-04-18 09:02:00,
2013-04-18 05:12:00,75.0,72.0,26.41,SSE,156,16.0,26.0,91,0.02,,,0.02,,2013-04-18 09:12:00,
2013-04-18 05:22:00,75.0,72.0,26.41,SSE,156,16.0,26.0,91,0.02,,,0.02,,2013-04-18 09:22:00,
2013-04-18 05:33:00,74.0,71.0,26.41,ESE,105,8.0,15.0,91,0.03,,,0.03,,2013-04-18 09:33:00,
2013-04-18 05:43:00,73.0,71.0,26.41,ESE,105,10.0,12.0,92,0.03,,,0.03,,2013-04-18 09:43:00,
2013-04-18 05:53:00,73.0,71.0,26.41,ESE,105,10.0,12.0,92,0.03,,,0.03,,2013-04-18 09:53:00,
2013-04-18 06:03:00,74.0,72.0,26.41,SE,125,6.0,10.0,92,0.03,,,0.03,,2013-04-18 10:03:00,
2013-04-18 06:12:00,74.0,72.0,26.41,SE,125,6.0,10.0,92,0.03,,,0.03,,2013-04-18 10:12:00,
2013-04-18 06:23:00,74.0,71.0,26.41,ESE,110,7.0,11.0,90,0.01,,,0.03,,2013-04-18 10:23:00,
2013-04-18 06:32:00,74.0,71.0,26.41,ESE,121,10.0,12.0,90,0.00,,,0.03,,2013-04-18 10:32:00,
2013-04-18 06:42:00,74.0,71.0,26.41,ESE,121,10.0,12.0,90,0.00,,,0.03,,2013-04-18 10:42:00,
2013-04-18 06:53:00,75.0,72.0,26.41,ESE,119,12.0,15.0,89,0.00,,,0.03,,2013-04-18 10:53:00,
2013-04-18 07:02:00,75.0,72.0,26.41,ESE,119,9.0,13.0,89,0.00,,,0.03,,2013-04-18 11:02:00,
2013-04-18 07:12:00,76.0,72.0,26.41,SE,134,7.0,12.0,88,0.00,,,0.03,,2013-04-18 11:12:00,
2013-04-18 07:22:00,76.0,72.0,26.41,SE,134,7.0,12.0,88,0.00,,,0.03,,2013-04-18 11:22:00,
2013-04-18 07:32:00,76.0,72.0,26.41,SE,134,11.0,13.0,88,0.00,,,0.03,,2013-04-18 11:32:00,
2013-04-18 07:42:00,76.0,72.0,26.41,SE,134,11.0,13.0,88,0.00,,,0.03,,2013-04-18 11:42:00,
2013-04-18 07:52:00,77.0,74.0,26.41,SE,134,12.0,15.0,89,0.00,,,0.03,,2013-04-18 11:52:00,
2013-04-18 08:02:00,77.0,74.0,26.41,SSE,153,19.0,22.0,89,0.00,,,0.03,,2013-04-18 12:02:00,
2013-04-18 08:12:00,77.0,74.0,26.41,SSE,153,19.0,22.0,89,0.00,,,0.03,,2013-04-18 12:12:00,
2013-04-18 08:22:00,77.0,74.0,26.41,SSE,151,18.0,23.0,89,0.00,,,0.03,,2013-04-18 12:22:00,
2013-04-18 08:32:00,78.0,74.0,26.41,SSE,154,18.0,21.0,88,0.00,,,0.03,,2013-04-18 12:32:00,
2013-04-18 08:42:00,78.0,74.0,26.41,SSE,154,18.0,21.0,88,0.00,,,0.03,,2013-04-18 12:42:00,
2013-04-18 08:52:00,79.0,75.0,26.41,SSE,150,19.0,23.0,88,0.00,,,0.03,,2013-04-18 12:52:00,
2013-04-18 09:02:00,79.0,74.0,26.41,SSE,148,17.0,22.0,86,0.00,,,0.03,,2013-04-18 13:02:00,
2013-04-18 09:12:00,81.0,75.0,26.41,SSE,158,19.0,23.0,83,0.00,,,0.03,,2013-04-18 13:12:00,
2013-04-18 09:22:00,81.0,75.0,26.41,SSE,158,19.0,23.0,83,0.00,,,0.03,,2013-04-18 13:22:00,
2013-04-18 09:32:00,81.0,75.0,26.41,SSE,150,19.0,22.0,81,0.01,,,0.04,,2013-04-18 13:32:00,
2013-04-18 09:42:00,82.0,74.0,26.41,SSE,150,18.0,22.0,78,0.01,,,0.04,,2013-04-18 13:42:00,
2013-04-18 09:53:00,82.0,74.0,26.41,SSE,150,18.0,22.0,78,0.01,,,0.04,,2013-04-18 13:53:00,
2013-04-18 10:02:00,82.0,74.0,26.41,SSE,156,17.0,21.0,77,0.01,,,0.04,,2013-04-18 14:02:00,
2013-04-18 10:12:00,83.0,74.0,26.41,SSE,168,17.0,20.0,74,0.01,,,0.04,,2013-04-18 14:12:00,
2013-04-18 10:22:00,83.0,74.0,26.41,SSE,168,17.0,20.0,74,0.01,,,0.04,,2013-04-18 14:22:00,
2013-04-18 10:32:00,82.0,72.0,26.41,SSE,165,15.0,20.0,73,0.00,,,0.04,,2013-04-18 14:32:00,
2013-04-18 10:43:00,83.0,74.0,26.41,SSE,166,15.0,20.0,74,0.00,,,0.04,,2013-04-18 14:43:00,
2013-04-18 10:52:00,83.0,74.0,26.41,SSE,166,15.0,20.0,74,0.00,,,0.04,,2013-04-18 14:52:00,
2013-04-18 11:03:00,83.0,74.0,26.41,SSE,159,16.0,20.0,74,0.00,,,0.04,,2013-04-18 15:03:00,
2013-04-18 11:12:00,83.0,74.0,26.41,SSE,159,16.0,20.0,74,0.00,,,0.04,,2013-04-18 15:12:00,
2013-04-18 11:22:00,85.0,75.0,26.41,SSE,160,17.0,19.0,73,0.00,,,0.04,,2013-04-18 15:22:00,
2013-04-18 11:33:00,85.0,75.0,26.41,SSE,154,18.0,21.0,72,0.00,,,0.04,,2013-04-18 15:33:00,
2013-04-18 11:43:00,86.0,75.0,26.41,SSE,167,15.0,20.0,70,0.00,,,0.04,,2013-04-18 15:43:00,
2013-04-18 11:53:00,86.0,75.0,26.41,SSE,167,15.0,20.0,70,0.00,,,0.04,,2013-04-18 15:53:00,
2013-04-18 12:03:00,86.0,75.0,26.41,South,169,17.0,22.0,69,0.00,,,0.04,,2013-04-18 16:03:00,
2013-04-18 12:13:00,87.0,75.0,26.41,SSE,159,20.0,23.0,67,0.00,,,0.04,,2013-04-18 16:13:00,
2013-04-18 12:23:00,87.0,75.0,26.41,SSE,159,20.0,23.0,67,0.00,,,0.04,,2013-04-18 16:23:00,
2013-04-18 12:33:00,87.0,75.0,26.41,South,170,19.0,22.0,67,0.00,,,0.04,,2013-04-18 16:33:00,
2013-04-18 12:43:00,88.0,76.0,26.41,SSE,156,20.0,22.0,67,0.00,,,0.04,,2013-04-18 16:43:00,
2013-04-18 12:53:00,88.0,76.0,26.41,SSE,156,20.0,22.0,67,0.00,,,0.04,,2013-04-18 16:53:00,
2013-04-18 13:03:00,88.0,76.0,26.41,SSE,167,20.0,22.0,67,0.00,,,0.04,,2013-04-18 17:03:00,
2013-04-18 13:12:00,89.0,77.0,26.41,SSE,159,20.0,23.0,67,0.00,,,0.04,,2013-04-18 17:12:00,
2013-04-18 13:22:00,89.0,77.0,26.41,SSE,159,20.0,23.0,67,0.00,,,0.04,,2013-04-18 17:22:00,
2013-04-18 13:33:00,88.0,75.0,26.41,SSE,164,20.0,24.0,65,0.00,,,0.04,,2013-04-18 17:33:00,
2013-04-18 13:42:00,88.0,76.0,26.41,SSE,159,21.0,23.0,67,0.00,,,0.04,,2013-04-18 17:42:00,
2013-04-18 13:52:00,88.0,76.0,26.41,SSE,159,21.0,23.0,67,0.00,,,0.04,,2013-04-18 17:52:00,
2013-04-18 14:03:00,88.0,76.0,26.41,South,171,19.0,24.0,67,0.00,,,0.04,,2013-04-18 18:03:00,
2013-04-18 14:12:00,90.0,77.0,26.41,SSE,161,20.0,22.0,65,0.00,,,0.04,,2013-04-18 18:12:00,
2013-04-18 14:23:00,90.0,77.0,26.41,SSE,161,20.0,22.0,65,0.00,,,0.04,,2013-04-18 18:23:00,
2013-04-18 14:32:00,90.0,76.0,26.41,SSE,152,18.0,22.0,64,0.00,,,0.04,,2013-04-18 18:32:00,
2013-04-18 14:42:00,90.0,76.0,26.41,SSE,166,18.0,22.0,64,0.00,,,0.04,,2013-04-18 18:42:00,
2013-04-18 14:52:00,90.0,76.0,26.41,SSE,166,18.0,22.0,64,0.00,,,0.04,,2013-04-18 18:52:00,
2013-04-18 15:02:00,90.0,76.0,26.41,SSE,163,19.0,21.0,64,0.00,,,0.04,,2013-04-18 19:02:00,
2013-04-18 15:12:00,90.0,76.0,26.41,SSE,163,19.0,21.0,64,0.00,,,0.04,,2013-04-18 19:12:00,
2013-04-18 15:22:00,91.0,76.0,26.41,SSE,168,17.0,21.0,62,0.00,,,0.04,,2013-04-18 19:22:00,
2013-04-18 15:32:00,91.0,76.0,26.41,SSE,163,17.0,20.0,62,0.00,,,0.04,,2013-04-18 19:32:00,
2013-04-18 15:42:00,91.0,76.0,26.41,SSE,163,17.0,20.0,62,0.00,,,0.04,,2013-04-18 19:42:00,
2013-04-18 15:53:00,91.0,76.0,26.41,SSE,155,19.0,21.0,62,0.00,,,0.04,,2013-04-18 19:53:00,
2013-04-18 16:02:00,91.0,76.0,26.41,SSE,150,17.0,21.0,61,0.00,,,0.04,,2013-04-18 20:02:00,
2013-04-18 16:12:00,91.0,76.0,26.41,SSE,150,17.0,21.0,61,0.00,,,0.04,,2013-04-18 20:12:00,
2013-04-18 16:22:00,91.0,76.0,26.41,SSE,157,17.0,20.0,62,0.00,,,0.04,,2013-04-18 20:22:00,
2013-04-18 16:32:00,90.0,76.0,26.41,SSE,167,20.0,23.0,63,0.00,,,0.04,,2013-04-18 20:32:00,
2013-04-18 16:42:00,88.0,75.0,26.41,SSE,152,19.0,23.0,66,0.00,,,0.04,,2013-04-18 20:42:00,
2013-04-18 16:52:00,88.0,75.0,26.41,SSE,152,19.0,23.0,66,0.00,,,0.04,,2013-04-18 20:52:00,
2013-04-18 17:02:00,89.0,76.0,26.41,South,171,18.0,22.0,66,0.00,,,0.04,,2013-04-18 21:02:00,
2013-04-18 17:12:00,91.0,77.0,26.41,SSE,149,18.0,22.0,64,0.00,,,0.04,,2013-04-18 21:12:00,
2013-04-18 17:22:00,91.0,77.0,26.41,SSE,149,18.0,22.0,64,0.00,,,0.04,,2013-04-18 21:22:00,
2013-04-18 17:33:00,90.0,76.0,26.41,SSE,153,21.0,24.0,64,0.00,,,0.04,,2013-04-18 21:33:00,
2013-04-18 17:43:00,86.0,75.0,26.41,South,169,16.0,20.0,69,0.00,,,0.04,,2013-04-18 21:43:00,
2013-04-18 17:53:00,86.0,75.0,26.41,South,169,16.0,20.0,69,0.00,,,0.04,,2013-04-18 21:53:00,
2013-04-18 18:02:00,86.0,75.0,26.41,SSE,161,15.0,19.0,70,0.00,,,0.04,,2013-04-18 22:02:00,
2013-04-18 18:13:00,86.0,74.0,26.41,SSE,165,17.0,21.0,68,0.00,,,0.04,,2013-04-18 22:13:00,
2013-04-18 18:23:00,86.0,74.0,26.41,SSE,165,17.0,21.0,68,0.00,,,0.04,,2013-04-18 22:23:00,
2013-04-18 18:32:00,85.0,74.0,26.41,South,171,19.0,21.0,70,0.00,,,0.04,,2013-04-18 22:32:00,
2013-04-18 18:42:00,84.0,74.0,26.41,SSE,159,17.0,20.0,72,0.00,,,0.04,,2013-04-18 22:42:00,
2013-04-18 18:52:00,84.0,74.0,26.41,SSE,159,17.0,20.0,72,0.00,,,0.04,,2013-04-18 22:52:00,
2013-04-18 19:04:00,83.0,73.0,26.41,SSE,168,19.0,21.0,73,0.00,,,0.04,,2013-04-18 23:04:00,
2013-04-18 19:12:00,84.0,74.0,26.41,SSE,157,18.0,24.0,72,0.00,,,0.04,,2013-04-18 23:12:00,
2013-04-18 19:21:00,84.0,74.0,26.41,SSE,157,18.0,24.0,72,0.00,,,0.04,,2013-04-18 23:21:00,
2013-04-18 19:32:00,83.0,73.0,26.41,SSE,155,19.0,22.0,72,0.00,,,0.04,,2013-04-18 23:32:00,
2013-04-18 19:42:00,82.0,73.0,26.41,SSE,162,20.0,24.0,74,0.00,,,0.04,,2013-04-18 23:42:00,
2013-04-18 19:52:00,82.0,73.0,26.41,SSE,162,20.0,24.0,74,0.00,,,0.04,,2013-04-18 23:52:00,
2013-04-18 20:01:00,82.0,73.0,26.41,SSE,159,21.0,23.0,75,0.00,,,0.04,,2013-04-19 00:01:00,
2013-04-18 20:12:00,81.0,73.0,26.41,SSE,148,18.0,23.0,77,0.00,,,0.04,,2013-04-19 00:12:00,
2013-04-18 20:22:00,81.0,73.0,26.41,SSE,148,18.0,23.0,77,0.00,,,0.04,,2013-04-19 00:22:00,
2013-04-18 20:32:00,81.0,73.0,26.41,SSE,159,21.0,24.0,78,0.00,,,0.04,,2013-04-19 00:32:00,
2013-04-18 20:42:00,80.0,73.0,26.41,SSE,154,24.0,26.0,79,0.00,,,0.04,,2013-04-19 00:42:00,
2013-04-18 20:52:00,80.0,73.0,26.41,SSE,154,24.0,26.0,79,0.00,,,0.04,,2013-04-19 00:52:00,
2013-04-18 21:01:00,80.0,73.0,26.41,SSE,158,22.0,25.0,80,0.00,,,0.04,,2013-04-19 01:01:00,
2013-04-18 21:11:00,80.0,73.0,26.41,SSE,158,22.0,25.0,80,0.00,,,0.04,,2013-04-19 01:11:00,
2013-04-18 21:21:00,80.0,73.0,26.41,SSE,158,23.0,26.0,80,0.00,,,0.04,,2013-04-19 01:21:00,
2013-04-18 21:32:00,80.0,73.0,26.41,SSE,167,22.0,25.0,80,0.00,,,0.04,,2013-04-19 01:32:00,
2013-04-18 21:42:00,80.0,73.0,26.41,SSE,167,22.0,25.0,80,0.00,,,0.04,,2013-04-19 01:42:00,
2013-04-18 21:52:00,80.0,75.0,26.41,SSE,158,22.0,26.0,85,0.00,,,0.04,,2013-04-19 01:52:00,
2013-04-18 22:02:00,80.0,74.0,26.41,SSE,150,23.0,27.0,81,0.00,,,0.04,,2013-04-19 02:02:00,
2013-04-18 22:11:00,80.0,74.0,26.41,SSE,150,23.0,27.0,81,0.00,,,0.04,,2013-04-19 02:11:00,
2013-04-18 22:21:00,79.0,73.0,26.41,SSE,152,25.0,28.0,82,0.00,,,0.04,,2013-04-19 02:21:00,
2013-04-18 22:32:00,79.0,73.0,26.41,SSE,152,21.0,27.0,83,0.00,,,0.04,,2013-04-19 02:32:00,
2013-04-18 22:42:00,79.0,73.0,26.41,SSE,156,23.0,27.0,83,0.00,,,0.04,,2013-04-19 02:42:00,
2013-04-18 22:52:00,79.0,73.0,26.41,SSE,156,23.0,27.0,83,0.00,,,0.04,,2013-04-19 02:52:00,
2013-04-18 23:01:00,79.0,73.0,26.41,SSE,152,24.0,27.0,83,0.00,,,0.04,,2013-04-19 03:01:00,
2013-04-18 23:12:00,79.0,73.0,26.41,SSE,152,24.0,27.0,83,0.00,,,0.04,,2013-04-19 03:12:00,
2013-04-18 23:22:00,79.0,74.0,26.41,SSE,150,25.0,28.0,84,0.00,,,0.04,,2013-04-19 03:22:00,
2013-04-18 23:33:00,79.0,73.0,26.41,SSE,155,26.0,29.0,83,0.00,,,0.04,,2013-04-19 03:33:00,
2013-04-18 23:43:00,79.0,73.0,26.41,SSE,166,24.0,28.0,83,0.00,,,0.04,,2013-04-19 03:43:00,
2013-04-18 23:53:00,79.0,73.0,26.41,SSE,166,24.0,28.0,83,0.00,,,0.04,,2013-04-19 03:53:00,